sensor_id;sensor_type;location;lat;lon;timestamp;pressure;altitude;pressure_sealevel;temperature;humidity
33286;BME280;19656;50.096;20.014;2023-08-06T00:04:12;97645.51;;;21.95;82.61
33286;BME280;19656;50.096;20.014;2023-08-06T00:09:15;97661.98;;;21.94;82.68
33286;BME280;19656;50.096;20.014;2023-08-06T00:14:18;97658.48;;;21.90;82.53
33286;BME280;19656;50.096;20.014;2023-08-06T00:19:22;97627.68;;;21.88;82.73
33286;BME280;19656;50.096;20.014;2023-08-06T00:24:25;97600.48;;;21.82;82.64
33286;BME280;19656;50.096;20.014;2023-08-06T00:29:28;97585.36;;;21.81;82.70
33286;BME280;19656;50.096;20.014;2023-08-06T00:34:32;97584.71;;;21.80;82.73
33286;BME280;19656;50.096;20.014;2023-08-06T00:39:35;97574.06;;;21.82;82.71
33286;BME280;19656;50.096;20.014;2023-08-06T00:44:38;97558.60;;;21.81;82.41
33286;BME280;19656;50.096;20.014;2023-08-06T00:49:43;97549.12;;;21.75;82.45
33286;BME280;19656;50.096;20.014;2023-08-06T00:54:46;97488.20;;;21.72;82.58
33286;BME280;19656;50.096;20.014;2023-08-06T00:59:51;97426.60;;;21.78;82.65
33286;BME280;19656;50.096;20.014;2023-08-06T01:04:54;97397.42;;;21.79;82.32
33286;BME280;19656;50.096;20.014;2023-08-06T01:15:32;97482.04;;;21.77;82.12
33286;BME280;19656;50.096;20.014;2023-08-06T01:20:38;97489.04;;;21.76;82.20
33286;BME280;19656;50.096;20.014;2023-08-06T01:31:20;97504.89;;;21.69;82.63
33286;BME280;19656;50.096;20.014;2023-08-06T01:36:26;97495.98;;;21.68;82.87
33286;BME280;19656;50.096;20.014;2023-08-06T01:41:30;97480.42;;;21.71;82.93
33286;BME280;19656;50.096;20.014;2023-08-06T01:46:44;97456.96;;;21.71;83.02
33286;BME280;19656;50.096;20.014;2023-08-06T01:51:47;97454.42;;;21.71;83.03
33286;BME280;19656;50.096;20.014;2023-08-06T01:56:50;97457.63;;;21.74;83.05
33286;BME280;19656;50.096;20.014;2023-08-06T02:01:53;97445.80;;;21.75;83.00
33286;BME280;19656;50.096;20.014;2023-08-06T02:06:57;97440.88;;;21.72;82.94
33286;BME280;19656;50.096;20.014;2023-08-06T02:12:00;97432.14;;;21.72;83.20
33286;BME280;19656;50.096;20.014;2023-08-06T02:17:03;97436.51;;;21.71;83.34
33286;BME280;19656;50.096;20.014;2023-08-06T02:22:07;97427.10;;;21.76;83.44
33286;BME280;19656;50.096;20.014;2023-08-06T02:27:10;97420.94;;;21.80;83.22
33286;BME280;19656;50.096;20.014;2023-08-06T02:32:13;97420.55;;;21.76;83.24
33286;BME280;19656;50.096;20.014;2023-08-06T02:37:17;97413.02;;;21.79;83.34
33286;BME280;19656;50.096;20.014;2023-08-06T02:42:27;97406.60;;;21.82;83.46
33286;BME280;19656;50.096;20.014;2023-08-06T02:47:30;97398.73;;;21.83;83.45
33286;BME280;19656;50.096;20.014;2023-08-06T02:52:34;97392.93;;;21.87;83.31
33286;BME280;19656;50.096;20.014;2023-08-06T02:57:38;97384.86;;;21.89;83.42
33286;BME280;19656;50.096;20.014;2023-08-06T03:02:41;97383.66;;;21.95;83.11
33286;BME280;19656;50.096;20.014;2023-08-06T03:07:56;97387.61;;;21.91;83.02
33286;BME280;19656;50.096;20.014;2023-08-06T03:13:02;97391.02;;;21.87;83.02
33286;BME280;19656;50.096;20.014;2023-08-06T03:18:05;97387.73;;;21.89;83.18
33286;BME280;19656;50.096;20.014;2023-08-06T03:23:09;97382.73;;;21.90;83.21
33286;BME280;19656;50.096;20.014;2023-08-06T03:28:12;97382.79;;;21.88;83.23
33286;BME280;19656;50.096;20.014;2023-08-06T03:33:17;97369.10;;;21.87;83.45
33286;BME280;19656;50.096;20.014;2023-08-06T03:38:20;97354.86;;;21.88;83.38
33286;BME280;19656;50.096;20.014;2023-08-06T03:43:24;97350.73;;;21.86;83.28
33286;BME280;19656;50.096;20.014;2023-08-06T03:48:28;97346.81;;;21.83;83.51
33286;BME280;19656;50.096;20.014;2023-08-06T03:53:31;97345.77;;;21.83;83.62
33286;BME280;19656;50.096;20.014;2023-08-06T03:58:34;97332.98;;;21.87;83.87
33286;BME280;19656;50.096;20.014;2023-08-06T04:03:38;97319.86;;;21.90;83.58
33286;BME280;19656;50.096;20.014;2023-08-06T04:08:43;97306.06;;;21.89;83.48
33286;BME280;19656;50.096;20.014;2023-08-06T04:13:48;97306.02;;;21.90;83.52
33286;BME280;19656;50.096;20.014;2023-08-06T04:18:52;97299.56;;;21.92;83.34
33286;BME280;19656;50.096;20.014;2023-08-06T04:23:56;97295.31;;;21.91;83.35
33286;BME280;19656;50.096;20.014;2023-08-06T04:29:00;97291.56;;;21.89;83.39
33286;BME280;19656;50.096;20.014;2023-08-06T04:34:04;97290.05;;;21.88;83.43
33286;BME280;19656;50.096;20.014;2023-08-06T04:39:08;97288.92;;;21.89;83.52
33286;BME280;19656;50.096;20.014;2023-08-06T04:44:11;97290.06;;;21.90;83.37
33286;BME280;19656;50.096;20.014;2023-08-06T04:49:14;97289.81;;;21.88;83.25
33286;BME280;19656;50.096;20.014;2023-08-06T04:54:23;97291.27;;;21.87;83.24
33286;BME280;19656;50.096;20.014;2023-08-06T04:59:30;97291.92;;;21.87;83.17
33286;BME280;19656;50.096;20.014;2023-08-06T05:04:34;97287.73;;;21.87;83.01
33286;BME280;19656;50.096;20.014;2023-08-06T05:09:37;97279.32;;;21.84;83.03
33286;BME280;19656;50.096;20.014;2023-08-06T05:14:42;97272.55;;;21.84;83.15
33286;BME280;19656;50.096;20.014;2023-08-06T05:19:45;97263.95;;;21.84;83.25
33286;BME280;19656;50.096;20.014;2023-08-06T05:24:49;97256.81;;;21.85;83.37
33286;BME280;19656;50.096;20.014;2023-08-06T05:29:55;97243.74;;;21.85;83.22
33286;BME280;19656;50.096;20.014;2023-08-06T05:34:59;97238.65;;;21.85;83.27
33286;BME280;19656;50.096;20.014;2023-08-06T05:40:03;97226.19;;;21.86;83.42
33286;BME280;19656;50.096;20.014;2023-08-06T05:45:07;97214.63;;;21.90;83.12
33286;BME280;19656;50.096;20.014;2023-08-06T05:50:11;97207.01;;;21.89;83.23
33286;BME280;19656;50.096;20.014;2023-08-06T05:55:14;97201.23;;;21.88;83.24
33286;BME280;19656;50.096;20.014;2023-08-06T06:00:18;97201.51;;;21.88;83.28
33286;BME280;19656;50.096;20.014;2023-08-06T06:05:22;97192.51;;;21.89;83.36
33286;BME280;19656;50.096;20.014;2023-08-06T06:10:25;97184.61;;;21.94;83.13
33286;BME280;19656;50.096;20.014;2023-08-06T06:15:28;97174.69;;;22.00;82.89
33286;BME280;19656;50.096;20.014;2023-08-06T06:20:32;97164.05;;;22.02;82.81
33286;BME280;19656;50.096;20.014;2023-08-06T06:25:35;97153.10;;;22.09;82.70
33286;BME280;19656;50.096;20.014;2023-08-06T06:30:41;97152.35;;;22.16;82.32
33286;BME280;19656;50.096;20.014;2023-08-06T06:35:46;97155.04;;;22.21;81.96
33286;BME280;19656;50.096;20.014;2023-08-06T06:40:59;97149.02;;;22.28;81.61
33286;BME280;19656;50.096;20.014;2023-08-06T06:46:03;97145.55;;;22.35;81.50
33286;BME280;19656;50.096;20.014;2023-08-06T06:51:06;97139.90;;;22.40;80.97
33286;BME280;19656;50.096;20.014;2023-08-06T06:56:09;97139.48;;;22.44;80.83
33286;BME280;19656;50.096;20.014;2023-08-06T07:01:12;97136.02;;;22.47;80.94
33286;BME280;19656;50.096;20.014;2023-08-06T07:06:18;97140.23;;;22.47;80.91
33286;BME280;19656;50.096;20.014;2023-08-06T07:11:22;97133.34;;;22.43;80.95
33286;BME280;19656;50.096;20.014;2023-08-06T07:16:25;97135.78;;;22.43;80.91
33286;BME280;19656;50.096;20.014;2023-08-06T07:21:29;97134.98;;;22.46;81.11
33286;BME280;19656;50.096;20.014;2023-08-06T07:26:32;97130.55;;;22.48;80.81
33286;BME280;19656;50.096;20.014;2023-08-06T07:31:35;97128.75;;;22.49;81.02
33286;BME280;19656;50.096;20.014;2023-08-06T07:36:39;97125.55;;;22.49;81.37
33286;BME280;19656;50.096;20.014;2023-08-06T07:41:42;97136.02;;;22.46;81.40
33286;BME280;19656;50.096;20.014;2023-08-06T07:46:46;97132.95;;;22.46;81.44
33286;BME280;19656;50.096;20.014;2023-08-06T07:51:49;97136.44;;;22.45;81.26
33286;BME280;19656;50.096;20.014;2023-08-06T07:56:54;97150.02;;;22.35;81.66
33286;BME280;19656;50.096;20.014;2023-08-06T08:01:58;97160.48;;;22.22;80.25
33286;BME280;19656;50.096;20.014;2023-08-06T08:07:01;97156.47;;;21.99;78.62
33286;BME280;19656;50.096;20.014;2023-08-06T08:12:04;97156.53;;;21.82;78.58
33286;BME280;19656;50.096;20.014;2023-08-06T08:17:07;97152.73;;;21.65;78.00
33286;BME280;19656;50.096;20.014;2023-08-06T08:22:11;97146.66;;;21.49;78.20
33286;BME280;19656;50.096;20.014;2023-08-06T08:27:14;97162.45;;;21.45;78.17
33286;BME280;19656;50.096;20.014;2023-08-06T08:32:28;97165.35;;;21.36;77.94
33286;BME280;19656;50.096;20.014;2023-08-06T08:37:32;97170.96;;;21.24;77.94
33286;BME280;19656;50.096;20.014;2023-08-06T08:42:35;97179.16;;;21.11;78.29
33286;BME280;19656;50.096;20.014;2023-08-06T08:47:40;97174.59;;;21.02;78.34
33286;BME280;19656;50.096;20.014;2023-08-06T08:52:43;97174.34;;;21.00;78.21
33286;BME280;19656;50.096;20.014;2023-08-06T08:57:48;97184.44;;;20.99;78.50
33286;BME280;19656;50.096;20.014;2023-08-06T09:05:18;97177.04;;;20.90;78.06
33286;BME280;19656;50.096;20.014;2023-08-06T09:10:23;97169.70;;;20.84;78.27
33286;BME280;19656;50.096;20.014;2023-08-06T09:15:28;97144.24;;;20.86;78.65
33286;BME280;19656;50.096;20.014;2023-08-06T09:25:38;97151.48;;;20.96;78.90
33286;BME280;19656;50.096;20.014;2023-08-06T09:30:47;97158.60;;;21.03;78.42
33286;BME280;19656;50.096;20.014;2023-08-06T09:35:51;97144.98;;;21.11;78.07
33286;BME280;19656;50.096;20.014;2023-08-06T09:40:54;97145.49;;;21.12;77.85
33286;BME280;19656;50.096;20.014;2023-08-06T09:45:58;97154.83;;;21.13;77.97
33286;BME280;19656;50.096;20.014;2023-08-06T09:51:02;97157.19;;;21.13;77.44
33286;BME280;19656;50.096;20.014;2023-08-06T09:56:06;97169.47;;;21.04;76.96
33286;BME280;19656;50.096;20.014;2023-08-06T10:01:11;97154.60;;;20.92;76.43
33286;BME280;19656;50.096;20.014;2023-08-06T10:06:15;97179.41;;;20.73;76.42
33286;BME280;19656;50.096;20.014;2023-08-06T10:11:21;97192.52;;;20.59;76.38
33286;BME280;19656;50.096;20.014;2023-08-06T10:16:27;97197.11;;;20.58;77.07
33286;BME280;19656;50.096;20.014;2023-08-06T10:21:31;97189.61;;;20.59;76.97
33286;BME280;19656;50.096;20.014;2023-08-06T10:26:34;97191.22;;;20.57;76.75
33286;BME280;19656;50.096;20.014;2023-08-06T10:31:59;97191.29;;;20.50;76.59
33286;BME280;19656;50.096;20.014;2023-08-06T10:37:05;97194.91;;;20.47;76.71
33286;BME280;19656;50.096;20.014;2023-08-06T10:42:22;97195.61;;;20.44;76.98
33286;BME280;19656;50.096;20.014;2023-08-06T10:47:28;97192.18;;;20.41;76.55
33286;BME280;19656;50.096;20.014;2023-08-06T10:52:31;97188.61;;;20.41;76.17
33286;BME280;19656;50.096;20.014;2023-08-06T10:57:34;97177.42;;;20.36;75.87
33286;BME280;19656;50.096;20.014;2023-08-06T11:02:38;97175.81;;;20.28;76.08
33286;BME280;19656;50.096;20.014;2023-08-06T11:07:41;97178.27;;;20.29;76.24
33286;BME280;19656;50.096;20.014;2023-08-06T11:12:45;97180.77;;;20.33;75.99
33286;BME280;19656;50.096;20.014;2023-08-06T11:17:48;97181.05;;;20.28;75.67
33286;BME280;19656;50.096;20.014;2023-08-06T11:22:53;97183.21;;;20.21;75.18
33286;BME280;19656;50.096;20.014;2023-08-06T11:27:56;97193.75;;;20.07;74.76
33286;BME280;19656;50.096;20.014;2023-08-06T11:32:59;97206.16;;;19.86;75.14
33286;BME280;19656;50.096;20.014;2023-08-06T11:38:03;97209.86;;;19.68;75.30
33286;BME280;19656;50.096;20.014;2023-08-06T11:43:06;97226.51;;;19.50;75.72
33286;BME280;19656;50.096;20.014;2023-08-06T11:48:09;97221.81;;;19.41;76.49
33286;BME280;19656;50.096;20.014;2023-08-06T11:53:14;97226.43;;;19.28;76.36
33286;BME280;19656;50.096;20.014;2023-08-06T11:58:17;97223.63;;;19.10;76.59
33286;BME280;19656;50.096;20.014;2023-08-06T12:03:21;97229.26;;;19.04;77.03
33286;BME280;19656;50.096;20.014;2023-08-06T12:08:27;97227.05;;;18.86;77.46
33286;BME280;19656;50.096;20.014;2023-08-06T12:13:31;97249.98;;;18.72;77.37
33286;BME280;19656;50.096;20.014;2023-08-06T12:18:34;97255.48;;;18.58;77.08
33286;BME280;19656;50.096;20.014;2023-08-06T12:23:37;97251.48;;;18.42;77.38
33286;BME280;19656;50.096;20.014;2023-08-06T12:28:41;97253.42;;;18.28;77.85
33286;BME280;19656;50.096;20.014;2023-08-06T12:33:44;97271.16;;;18.13;78.38
33286;BME280;19656;50.096;20.014;2023-08-06T12:38:47;97279.69;;;18.07;78.51
33286;BME280;19656;50.096;20.014;2023-08-06T12:43:51;97290.60;;;17.94;78.66
33286;BME280;19656;50.096;20.014;2023-08-06T12:48:54;97275.42;;;17.80;78.95
33286;BME280;19656;50.096;20.014;2023-08-06T12:53:57;97276.95;;;17.73;79.28
33286;BME280;19656;50.096;20.014;2023-08-06T12:59:01;97278.55;;;17.68;79.84
33286;BME280;19656;50.096;20.014;2023-08-06T13:04:05;97289.38;;;17.67;80.21
33286;BME280;19656;50.096;20.014;2023-08-06T13:09:25;97302.77;;;17.69;80.53
33286;BME280;19656;50.096;20.014;2023-08-06T13:14:33;97309.36;;;17.71;80.65
33286;BME280;19656;50.096;20.014;2023-08-06T13:19:36;97320.36;;;17.76;80.54
33286;BME280;19656;50.096;20.014;2023-08-06T13:24:39;97333.39;;;17.71;80.60
33286;BME280;19656;50.096;20.014;2023-08-06T13:29:42;97340.30;;;17.74;80.82
33286;BME280;19656;50.096;20.014;2023-08-06T13:34:45;97356.33;;;17.81;80.91
33286;BME280;19656;50.096;20.014;2023-08-06T13:39:48;97355.19;;;17.90;81.02
33286;BME280;19656;50.096;20.014;2023-08-06T13:44:51;97361.02;;;17.91;80.81
33286;BME280;19656;50.096;20.014;2023-08-06T13:49:55;97360.98;;;17.90;80.99
33286;BME280;19656;50.096;20.014;2023-08-06T13:54:58;97364.53;;;17.92;80.73
33286;BME280;19656;50.096;20.014;2023-08-06T14:00:02;97345.61;;;17.97;80.41
33286;BME280;19656;50.096;20.014;2023-08-06T14:05:14;97334.32;;;18.03;80.46
33286;BME280;19656;50.096;20.014;2023-08-06T14:10:17;97346.50;;;18.09;80.73
33286;BME280;19656;50.096;20.014;2023-08-06T14:15:20;97367.41;;;18.17;80.48
33286;BME280;19656;50.096;20.014;2023-08-06T14:20:24;97376.24;;;18.24;80.20
33286;BME280;19656;50.096;20.014;2023-08-06T14:25:27;97384.29;;;18.30;79.67
33286;BME280;19656;50.096;20.014;2023-08-06T14:30:30;97377.41;;;18.33;79.82
33286;BME280;19656;50.096;20.014;2023-08-06T14:35:34;97387.55;;;18.38;79.61
33286;BME280;19656;50.096;20.014;2023-08-06T14:40:37;97400.38;;;18.36;79.36
33286;BME280;19656;50.096;20.014;2023-08-06T14:45:41;97393.63;;;18.39;79.27
33286;BME280;19656;50.096;20.014;2023-08-06T14:50:44;97391.02;;;18.39;79.72
33286;BME280;19656;50.096;20.014;2023-08-06T14:55:48;97388.40;;;18.38;79.63
33286;BME280;19656;50.096;20.014;2023-08-06T15:00:51;97391.48;;;18.38;79.69
33286;BME280;19656;50.096;20.014;2023-08-06T15:05:54;97392.25;;;18.41;79.70
33286;BME280;19656;50.096;20.014;2023-08-06T15:10:57;97393.73;;;18.49;79.94
33286;BME280;19656;50.096;20.014;2023-08-06T15:16:01;97409.63;;;18.49;79.90
33286;BME280;19656;50.096;20.014;2023-08-06T15:21:04;97429.73;;;18.49;79.09
33286;BME280;19656;50.096;20.014;2023-08-06T15:26:07;97445.73;;;18.38;78.69
33286;BME280;19656;50.096;20.014;2023-08-06T15:31:10;97457.16;;;18.33;78.60
33286;BME280;19656;50.096;20.014;2023-08-06T15:36:14;97463.34;;;18.35;78.91
33286;BME280;19656;50.096;20.014;2023-08-06T15:41:25;97464.94;;;18.31;78.77
33286;BME280;19656;50.096;20.014;2023-08-06T15:46:35;97476.13;;;18.23;79.19
33286;BME280;19656;50.096;20.014;2023-08-06T15:51:40;97486.73;;;18.26;79.73
33286;BME280;19656;50.096;20.014;2023-08-06T15:56:44;97499.58;;;18.43;79.50
33286;BME280;19656;50.096;20.014;2023-08-06T16:01:47;97504.23;;;18.44;78.94
33286;BME280;19656;50.096;20.014;2023-08-06T16:06:51;97506.31;;;18.42;78.99
33286;BME280;19656;50.096;20.014;2023-08-06T16:11:55;97515.63;;;18.39;78.66
33286;BME280;19656;50.096;20.014;2023-08-06T16:16:58;97518.53;;;18.35;78.93
33286;BME280;19656;50.096;20.014;2023-08-06T16:22:02;97524.67;;;18.30;78.97
33286;BME280;19656;50.096;20.014;2023-08-06T16:27:05;97535.73;;;18.25;79.11
33286;BME280;19656;50.096;20.014;2023-08-06T16:32:08;97534.81;;;18.15;79.37
33286;BME280;19656;50.096;20.014;2023-08-06T16:37:12;97532.03;;;18.14;79.65
33286;BME280;19656;50.096;20.014;2023-08-06T16:42:15;97531.73;;;18.17;79.64
33286;BME280;19656;50.096;20.014;2023-08-06T16:47:18;97541.95;;;18.20;79.81
33286;BME280;19656;50.096;20.014;2023-08-06T16:52:22;97543.13;;;18.16;79.44
33286;BME280;19656;50.096;20.014;2023-08-06T16:57:28;97532.48;;;18.00;79.59
33286;BME280;19656;50.096;20.014;2023-08-06T17:02:32;97537.56;;;17.92;79.86
33286;BME280;19656;50.096;20.014;2023-08-06T17:07:35;97547.27;;;17.90;80.02
33286;BME280;19656;50.096;20.014;2023-08-06T17:12:38;97554.79;;;17.93;79.85
33286;BME280;19656;50.096;20.014;2023-08-06T17:17:41;97568.20;;;17.90;79.66
33286;BME280;19656;50.096;20.014;2023-08-06T17:22:44;97564.70;;;17.91;79.49
33286;BME280;19656;50.096;20.014;2023-08-06T17:27:48;97563.55;;;17.87;79.40
33286;BME280;19656;50.096;20.014;2023-08-06T17:32:52;97578.08;;;17.92;79.26
33286;BME280;19656;50.096;20.014;2023-08-06T17:37:55;97587.25;;;17.89;78.80
33286;BME280;19656;50.096;20.014;2023-08-06T17:43:00;97590.72;;;17.80;78.55
33286;BME280;19656;50.096;20.014;2023-08-06T17:48:03;97591.95;;;17.66;78.63
33286;BME280;19656;50.096;20.014;2023-08-06T17:53:07;97594.65;;;17.63;78.98
33286;BME280;19656;50.096;20.014;2023-08-06T17:58:11;97594.52;;;17.61;79.01
33286;BME280;19656;50.096;20.014;2023-08-06T18:03:14;97600.63;;;17.56;79.36
33286;BME280;19656;50.096;20.014;2023-08-06T18:08:20;97597.10;;;17.48;79.79
33286;BME280;19656;50.096;20.014;2023-08-06T18:13:23;97591.44;;;17.46;80.00
33286;BME280;19656;50.096;20.014;2023-08-06T18:18:26;97588.08;;;17.45;79.65
33286;BME280;19656;50.096;20.014;2023-08-06T18:23:30;97590.46;;;17.43;79.68
33286;BME280;19656;50.096;20.014;2023-08-06T18:28:33;97593.98;;;17.47;79.27
33286;BME280;19656;50.096;20.014;2023-08-06T18:33:37;97589.94;;;17.41;78.84
33286;BME280;19656;50.096;20.014;2023-08-06T18:38:41;97599.52;;;17.42;78.82
33286;BME280;19656;50.096;20.014;2023-08-06T18:43:45;97604.48;;;17.44;78.48
33286;BME280;19656;50.096;20.014;2023-08-06T18:48:49;97615.88;;;17.43;77.91
33286;BME280;19656;50.096;20.014;2023-08-06T18:53:52;97634.20;;;17.30;77.40
33286;BME280;19656;50.096;20.014;2023-08-06T18:58:56;97644.84;;;17.14;77.87
33286;BME280;19656;50.096;20.014;2023-08-06T19:03:59;97658.26;;;17.06;77.97
33286;BME280;19656;50.096;20.014;2023-08-06T19:09:02;97658.00;;;17.06;78.07
33286;BME280;19656;50.096;20.014;2023-08-06T19:14:05;97656.63;;;17.03;77.85
33286;BME280;19656;50.096;20.014;2023-08-06T19:19:09;97657.64;;;16.94;77.99
33286;BME280;19656;50.096;20.014;2023-08-06T19:24:12;97660.51;;;16.91;78.25
33286;BME280;19656;50.096;20.014;2023-08-06T19:29:15;97658.20;;;16.90;78.48
33286;BME280;19656;50.096;20.014;2023-08-06T19:34:18;97660.75;;;16.92;78.39
33286;BME280;19656;50.096;20.014;2023-08-06T19:39:23;97658.27;;;16.93;78.33
33286;BME280;19656;50.096;20.014;2023-08-06T19:44:26;97655.65;;;16.92;78.45
33286;BME280;19656;50.096;20.014;2023-08-06T19:49:29;97657.83;;;16.94;78.46
33286;BME280;19656;50.096;20.014;2023-08-06T19:54:32;97655.84;;;17.02;78.77
33286;BME280;19656;50.096;20.014;2023-08-06T19:59:36;97656.27;;;17.09;78.30
33286;BME280;19656;50.096;20.014;2023-08-06T20:04:39;97659.43;;;17.07;78.09
33286;BME280;19656;50.096;20.014;2023-08-06T20:09:43;97663.20;;;16.96;78.15
33286;BME280;19656;50.096;20.014;2023-08-06T20:14:46;97660.45;;;16.86;78.49
33286;BME280;19656;50.096;20.014;2023-08-06T20:19:50;97660.83;;;16.82;78.58
33286;BME280;19656;50.096;20.014;2023-08-06T20:24:54;97655.13;;;16.72;78.53
33286;BME280;19656;50.096;20.014;2023-08-06T20:29:57;97662.41;;;16.68;78.65
33286;BME280;19656;50.096;20.014;2023-08-06T20:35:00;97665.27;;;16.68;78.63
33286;BME280;19656;50.096;20.014;2023-08-06T20:40:04;97659.02;;;16.71;78.36
33286;BME280;19656;50.096;20.014;2023-08-06T20:45:07;97652.23;;;16.71;78.08
33286;BME280;19656;50.096;20.014;2023-08-06T20:50:11;97642.65;;;16.65;77.92
33286;BME280;19656;50.096;20.014;2023-08-06T20:55:14;97644.17;;;16.63;78.02
33286;BME280;19656;50.096;20.014;2023-08-06T21:00:18;97640.51;;;16.65;78.07
33286;BME280;19656;50.096;20.014;2023-08-06T21:05:21;97636.67;;;16.64;77.93
33286;BME280;19656;50.096;20.014;2023-08-06T21:10:25;97637.32;;;16.65;78.06
33286;BME280;19656;50.096;20.014;2023-08-06T21:15:28;97652.09;;;16.64;77.94
33286;BME280;19656;50.096;20.014;2023-08-06T21:20:32;97653.95;;;16.61;78.06
33286;BME280;19656;50.096;20.014;2023-08-06T21:25:35;97650.89;;;16.57;77.93
33286;BME280;19656;50.096;20.014;2023-08-06T21:30:38;97647.29;;;16.52;78.00
33286;BME280;19656;50.096;20.014;2023-08-06T21:35:47;97640.94;;;16.48;78.07
33286;BME280;19656;50.096;20.014;2023-08-06T21:40:50;97646.58;;;16.44;78.19
33286;BME280;19656;50.096;20.014;2023-08-06T21:45:53;97651.71;;;16.38;78.39
33286;BME280;19656;50.096;20.014;2023-08-06T21:51:01;97658.98;;;16.42;78.56
33286;BME280;19656;50.096;20.014;2023-08-06T21:56:08;97668.39;;;16.46;78.72
33286;BME280;19656;50.096;20.014;2023-08-06T22:01:15;97670.27;;;16.50;78.81
33286;BME280;19656;50.096;20.014;2023-08-06T22:06:18;97681.86;;;16.52;78.80
33286;BME280;19656;50.096;20.014;2023-08-06T22:11:21;97688.35;;;16.52;78.87
33286;BME280;19656;50.096;20.014;2023-08-06T22:16:25;97692.91;;;16.56;79.00
33286;BME280;19656;50.096;20.014;2023-08-06T22:21:28;97697.83;;;16.62;78.79
33286;BME280;19656;50.096;20.014;2023-08-06T22:26:31;97701.16;;;16.66;78.39
33286;BME280;19656;50.096;20.014;2023-08-06T22:31:35;97703.08;;;16.68;78.07
33286;BME280;19656;50.096;20.014;2023-08-06T22:36:38;97704.61;;;16.64;77.82
33286;BME280;19656;50.096;20.014;2023-08-06T22:41:41;97701.82;;;16.63;77.87
33286;BME280;19656;50.096;20.014;2023-08-06T22:46:44;97704.00;;;16.64;77.78
33286;BME280;19656;50.096;20.014;2023-08-06T22:51:48;97708.17;;;16.66;78.10
33286;BME280;19656;50.096;20.014;2023-08-06T22:56:51;97713.73;;;16.67;78.35
33286;BME280;19656;50.096;20.014;2023-08-06T23:01:54;97729.73;;;16.70;78.59
33286;BME280;19656;50.096;20.014;2023-08-06T23:06:58;97736.27;;;16.76;78.79
33286;BME280;19656;50.096;20.014;2023-08-06T23:12:01;97748.35;;;16.82;78.89
33286;BME280;19656;50.096;20.014;2023-08-06T23:17:05;97746.45;;;16.85;79.00
33286;BME280;19656;50.096;20.014;2023-08-06T23:22:10;97749.56;;;16.84;79.14
33286;BME280;19656;50.096;20.014;2023-08-06T23:27:13;97748.08;;;16.88;79.12
33286;BME280;19656;50.096;20.014;2023-08-06T23:32:16;97744.73;;;16.94;79.13
33286;BME280;19656;50.096;20.014;2023-08-06T23:37:19;97743.14;;;16.93;78.84
33286;BME280;19656;50.096;20.014;2023-08-06T23:42:23;97740.61;;;16.89;79.13
33286;BME280;19656;50.096;20.014;2023-08-06T23:47:27;97741.41;;;16.88;79.03
33286;BME280;19656;50.096;20.014;2023-08-06T23:52:31;97738.17;;;16.85;79.01
33286;BME280;19656;50.096;20.014;2023-08-06T23:57:34;97741.87;;;16.87;79.00
